Terminal Aerodrome Forecast
Issued by NWS Twin Cities, MN

Home | Current Version | Previous Version | Text Only | Print | Product List | Glossary Off
Versions: 1 2 3 4 5 6 7 8 9 10 11 12 13 14 15 16 17 18 19

000
FTUS43 KMPX 310500
TAFEAU
TAF
KEAU 310530Z 3106/0106 00000KT 1/4SM FG VV002
     FM311500 14008KT 6SM BR BKN015
     FM311600 16014G21KT P6SM SCT025 BKN100
     FM010100 18009KT P6SM VCTS SCT030CB BKN070
      TEMPO 0102/0106 1SM TSRA BKN015CB=

USA.gov is the U.S. government's official web portal to all federal, state and local government web resources and services.